Huvudsida
METAR-TAF:

METAR-TAF

Flygplatser :

Orumieh flygplats

Urmia, Iran

latitud: 37-32N, longitud: 045-05E, höjd: 1297 m

Aktuellt väderrapport

Denna rapport gjordes för 17 minuter sedan, klockan 03:30 UTC
Vind 6 kt från väst
Temperatur -3°C
Fuktighet 68%
Tryck 1022 hPa
Sikt 10 km eller mer
Inga moln under 1 500 m eller inga cumulonimbus

METAR: OITR 200330Z 27006KT CAVOK M03/M08 Q1022

Tid: 07:17 (03:47 UTC)

Väderprognos

Denna rapport gjordes för 4 timmar och 47 minuter sedan, klockan 23:00 UTC
Prognos gäller från 20 kl. 00 UTC till 21 kl. 06 UTC
Vind 8 kt från väst
Sikt: 8000 m
Få moln på en höjd av 3000 ft

TAF: OITR 192300Z 2000/2106 28008KT 8000 FEW030

Aktuella väderrapporter och prognoser från 4000 flygplatser (METAR- och TAF-rapporter).

De tillgängliga stationerna syns som gula och röda prickar på kartan.

För musen över prickarna för att se namnen på stationerna.

Klicka sedan för att få väderrapporter och prognoser.

För att ändra kartan: Klicka på de gröna knapparna med ett svart kors på för att zooma in; den gröna knappen med ett streck på för att zooma ut; eller på de gröna pilarna för angränsande kartor.


METAR-TAF: